createdAt,value
2018-03-21T00:01:34.045Z,2.97
2018-03-21T00:04:00.323Z,2.40
2018-03-21T00:06:26.520Z,3.03
2018-03-21T00:08:52.771Z,3.60
2018-03-21T00:11:18.961Z,2.80
2018-03-21T00:13:45.239Z,2.90
2018-03-21T00:16:11.426Z,3.65
2018-03-21T00:18:37.608Z,2.60
2018-03-21T00:21:03.908Z,3.07
2018-03-21T00:23:30.109Z,3.07
2018-03-21T00:25:56.296Z,2.57
2018-03-21T00:28:23.373Z,2.77
2018-03-21T00:30:49.600Z,2.23
2018-03-21T00:33:15.824Z,2.30
2018-03-21T00:35:42.018Z,3.30
2018-03-21T00:38:08.196Z,2.97
2018-03-21T00:40:34.444Z,2.72
2018-03-21T00:43:00.634Z,2.27
2018-03-21T00:45:26.921Z,3.63
2018-03-21T00:47:53.134Z,2.33
2018-03-21T00:50:19.366Z,2.37
2018-03-21T00:52:45.557Z,2.35
2018-03-21T00:55:11.860Z,3.30
2018-03-21T00:57:38.835Z,2.10
2018-03-21T01:00:05.131Z,2.65
2018-03-21T01:02:31.419Z,2.90
2018-03-21T01:05:04.616Z,2.10
2018-03-21T01:07:30.889Z,3.50
2018-03-21T01:09:57.915Z,2.90
2018-03-21T01:12:24.129Z,2.45
2018-03-21T01:14:50.376Z,2.37
2018-03-21T01:17:16.626Z,2.67
2018-03-21T01:19:43.617Z,2.55
2018-03-21T01:22:09.802Z,2.60
2018-03-21T01:24:36.789Z,2.78
2018-03-21T01:27:02.974Z,2.75
2018-03-21T01:29:29.157Z,3.28
2018-03-21T01:31:55.442Z,2.30
2018-03-21T01:34:22.431Z,3.42
2018-03-21T01:36:48.703Z,3.40
2018-03-21T01:39:14.901Z,2.43
2018-03-21T01:41:41.116Z,3.08
2018-03-21T01:44:07.394Z,2.70
2018-03-21T01:46:34.435Z,3.08
2018-03-21T01:49:00.637Z,2.05
2018-03-21T01:51:26.827Z,2.40
2018-03-21T01:53:53.046Z,2.73
2018-03-21T01:56:19.278Z,3.55
2018-03-21T01:58:45.480Z,2.65
2018-03-21T02:01:12.425Z,3.10
2018-03-21T02:03:38.639Z,3.45
2018-03-21T02:06:04.896Z,2.65
2018-03-21T02:08:31.855Z,3.08
2018-03-21T02:10:58.083Z,3.53
2018-03-21T02:13:24.326Z,3.03
2018-03-21T02:15:50.569Z,2.95
2018-03-21T02:18:16.812Z,3.03
2018-03-21T02:20:42.997Z,3.15
2018-03-21T02:23:09.274Z,2.15
2018-03-21T02:25:35.474Z,3.60
2018-03-21T02:28:01.699Z,3.90
2018-03-21T02:30:27.917Z,3.65
2018-03-21T02:32:54.157Z,2.95
2018-03-21T02:35:20.354Z,3.42
2018-03-21T02:37:47.283Z,3.53
2018-03-21T02:40:13.538Z,3.72
2018-03-21T02:42:40.496Z,3.15
2018-03-21T02:45:06.930Z,4.03
2018-03-21T02:47:33.110Z,2.95
2018-03-21T02:49:59.313Z,2.80
2018-03-21T02:52:25.561Z,3.42
2018-03-21T02:54:51.824Z,3.45
2018-03-21T02:57:18.790Z,4.07
2018-03-21T02:59:45.008Z,3.85
2018-03-21T03:02:12.058Z,4.30
2018-03-21T03:04:38.987Z,3.35
2018-03-21T03:07:05.960Z,3.10
2018-03-21T03:09:32.248Z,3.37
2018-03-21T03:11:59.209Z,3.58
2018-03-21T03:14:26.132Z,3.33
2018-03-21T03:16:52.371Z,2.87
2018-03-21T03:19:18.580Z,3.10
2018-03-21T03:21:44.788Z,3.90
2018-03-21T03:24:11.008Z,4.18
2018-03-21T03:26:37.192Z,3.75
2018-03-21T03:29:03.407Z,3.40
2018-03-21T03:31:29.637Z,3.78
2018-03-21T03:33:55.846Z,3.62
2018-03-21T03:36:22.046Z,3.72
2018-03-21T03:38:48.236Z,3.80
2018-03-21T03:41:14.495Z,4.20
2018-03-21T03:43:40.723Z,4.60
2018-03-21T03:46:07.206Z,3.53
2018-03-21T03:48:33.390Z,3.85
2018-03-21T03:50:59.689Z,3.40
2018-03-21T03:53:25.906Z,3.65
2018-03-21T03:55:52.117Z,3.25
2018-03-21T03:58:18.305Z,4.32
2018-03-21T04:00:44.552Z,3.53
2018-03-21T04:03:10.786Z,3.53
2018-03-21T04:05:37.031Z,4.10
2018-03-21T04:08:03.324Z,4.32
2018-03-21T04:10:29.501Z,4.40
2018-03-21T04:12:56.499Z,4.12
2018-03-21T04:15:22.723Z,4.30
2018-03-21T04:17:48.905Z,4.62
2018-03-21T04:20:15.162Z,4.57
2018-03-21T04:22:41.438Z,3.67
2018-03-21T04:25:07.649Z,4.30
2018-03-21T04:27:33.832Z,4.40
2018-03-21T04:30:00.031Z,4.87
2018-03-21T04:32:26.217Z,4.50
2018-03-21T04:34:53.563Z,5.87
2018-03-21T04:37:20.548Z,5.00
2018-03-21T04:39:46.761Z,5.60
2018-03-21T04:42:12.984Z,6.00
2018-03-21T04:44:39.527Z,5.75
2018-03-21T04:47:07.892Z,5.57
2018-03-21T04:49:34.953Z,4.60
2018-03-21T04:52:01.607Z,5.22
2018-03-21T04:54:28.029Z,5.43
2018-03-21T04:56:55.402Z,5.93
2018-03-21T04:59:21.858Z,6.85
2018-03-21T05:01:48.102Z,8.30
2018-03-21T05:04:14.310Z,6.18
2018-03-21T05:06:40.561Z,7.65
2018-03-21T05:09:06.878Z,6.97
2018-03-21T05:11:33.094Z,8.25
2018-03-21T05:13:59.281Z,7.20
2018-03-21T05:16:25.462Z,7.85
2018-03-21T05:18:58.628Z,8.02
2018-03-21T05:21:24.834Z,7.25
2018-03-21T05:23:51.932Z,7.22
2018-03-21T05:26:18.158Z,6.90
2018-03-21T05:28:44.421Z,7.22
2018-03-21T05:31:10.628Z,7.25
2018-03-21T05:33:36.960Z,8.85
2018-03-21T05:36:03.192Z,7.00
2018-03-21T05:38:29.397Z,8.48
2018-03-21T05:40:55.592Z,7.60
2018-03-21T05:43:21.830Z,7.82
2018-03-21T05:45:48.864Z,6.65
2018-03-21T05:48:15.805Z,7.55
2018-03-21T05:50:42.106Z,8.10
2018-03-21T05:53:08.290Z,6.50
2018-03-21T05:55:34.514Z,7.95
2018-03-21T05:58:00.724Z,7.80
2018-03-21T06:00:27.675Z,8.90
2018-03-21T06:02:54.691Z,8.02
2018-03-21T06:05:21.629Z,8.77
2018-03-21T06:07:47.955Z,7.55
2018-03-21T06:10:14.143Z,7.22
2018-03-21T06:12:40.397Z,10.98
2018-03-21T06:15:06.782Z,8.18
2018-03-21T06:17:33.695Z,8.07
2018-03-21T06:20:00.354Z,7.43
2018-03-21T06:22:26.546Z,8.10
2018-03-21T06:24:52.827Z,6.75
2018-03-21T06:27:19.776Z,6.65
2018-03-21T06:29:46.889Z,6.85
2018-03-21T06:32:13.898Z,6.97
2018-03-21T06:34:40.104Z,6.70
2018-03-21T06:37:07.323Z,7.97
2018-03-21T06:39:33.536Z,7.07
2018-03-21T06:41:59.825Z,6.78
2018-03-21T06:44:26.040Z,7.70
2018-03-21T06:46:52.962Z,7.55
2018-03-21T06:49:19.187Z,8.68
2018-03-21T06:51:45.430Z,7.20
2018-03-21T06:54:11.677Z,8.82
2018-03-21T06:56:38.620Z,9.10
2018-03-21T06:59:05.588Z,10.32
2018-03-21T07:01:31.801Z,9.00
2018-03-21T07:03:58.812Z,8.25
2018-03-21T07:06:25.000Z,9.23
2018-03-21T07:08:51.280Z,9.27
2018-03-21T07:11:18.217Z,9.10
2018-03-21T07:13:56.678Z,7.07
2018-03-21T07:16:35.108Z,7.53
2018-03-21T07:19:01.354Z,7.60
2018-03-21T07:21:27.588Z,7.37
2018-03-21T07:23:53.868Z,7.35
2018-03-21T07:26:20.812Z,7.12
2018-03-21T07:28:47.863Z,8.45
2018-03-21T07:31:14.826Z,7.03
2018-03-21T07:33:41.029Z,8.43
2018-03-21T07:36:08.080Z,8.60
2018-03-21T07:38:35.112Z,9.73
2018-03-21T07:41:01.350Z,9.00
2018-03-21T07:43:28.296Z,16.73
2018-03-21T07:45:55.295Z,10.90
2018-03-21T07:48:21.621Z,8.60
2018-03-21T07:50:47.964Z,8.97
2018-03-21T07:53:14.172Z,7.70
2018-03-21T07:55:40.427Z,8.45
2018-03-21T07:58:06.837Z,7.27
2018-03-21T08:00:33.082Z,8.85
2018-03-21T08:02:59.274Z,9.20
2018-03-21T08:05:26.234Z,7.87
2018-03-21T08:07:52.437Z,7.63
2018-03-21T08:10:19.377Z,8.20
2018-03-21T08:12:46.344Z,9.60
2018-03-21T08:15:12.549Z,10.57
2018-03-21T08:17:38.814Z,10.17
2018-03-21T08:20:05.030Z,11.43
2018-03-21T08:22:31.201Z,8.73
2018-03-21T08:24:57.411Z,9.13
2018-03-21T08:27:23.608Z,10.10
2018-03-21T08:29:50.615Z,9.63
2018-03-21T08:32:16.852Z,9.20
2018-03-21T08:34:43.022Z,9.20
2018-03-21T08:37:09.204Z,14.03
2018-03-21T08:39:35.462Z,8.87
2018-03-21T08:42:02.485Z,8.40
2018-03-21T08:44:28.725Z,10.40
2018-03-21T08:46:55.661Z,10.47
2018-03-21T08:49:21.900Z,8.60
2018-03-21T08:51:48.096Z,10.80
2018-03-21T08:54:14.301Z,9.37
2018-03-21T08:56:40.588Z,7.50
2018-03-21T08:59:07.769Z,10.60
2018-03-21T09:01:34.054Z,13.17
2018-03-21T09:04:00.338Z,10.90
2018-03-21T09:06:26.541Z,14.90
2018-03-21T09:08:53.494Z,13.67
2018-03-21T09:11:19.782Z,10.20
2018-03-21T09:13:45.987Z,9.70
2018-03-21T09:16:12.508Z,9.50
2018-03-21T09:18:38.709Z,9.77
2018-03-21T09:21:05.645Z,8.67
2018-03-21T09:23:32.598Z,9.00
2018-03-21T09:25:59.594Z,7.90
2018-03-21T09:28:25.765Z,9.87
2018-03-21T09:30:52.065Z,8.97
2018-03-21T09:33:18.257Z,8.10
2018-03-21T09:35:44.479Z,7.70
2018-03-21T09:38:10.654Z,8.17
2018-03-21T09:40:36.941Z,8.33
2018-03-21T09:43:03.126Z,9.07
2018-03-21T09:45:29.354Z,8.97
2018-03-21T09:47:55.573Z,10.00
2018-03-21T09:50:21.828Z,8.90
2018-03-21T09:52:48.836Z,9.47
2018-03-21T09:55:15.112Z,9.83
2018-03-21T09:57:41.260Z,7.53
2018-03-21T10:00:07.736Z,8.93
2018-03-21T10:02:33.936Z,8.70
2018-03-21T10:05:00.123Z,9.97
2018-03-21T10:07:27.058Z,11.77
2018-03-21T10:09:53.436Z,8.80
2018-03-21T10:12:19.859Z,7.50
2018-03-21T10:14:46.125Z,8.67
2018-03-21T10:17:12.360Z,8.40
2018-03-21T10:19:38.639Z,7.60
2018-03-21T10:22:04.845Z,8.83
2018-03-21T10:24:31.054Z,7.13
2018-03-21T10:26:57.259Z,7.77
2018-03-21T10:29:23.543Z,8.20
2018-03-21T10:31:49.783Z,7.13
2018-03-21T10:34:16.844Z,8.07
2018-03-21T10:36:43.052Z,5.83
2018-03-21T10:39:09.283Z,6.67
2018-03-21T10:41:36.254Z,6.97
2018-03-21T10:44:02.554Z,7.13
2018-03-21T10:46:29.527Z,6.47
2018-03-21T10:48:55.742Z,6.30
2018-03-21T10:51:21.945Z,6.63
2018-03-21T10:53:48.140Z,6.60
2018-03-21T10:56:14.337Z,7.07
2018-03-21T10:58:40.554Z,6.40
2018-03-21T11:01:12.796Z,6.70
2018-03-21T11:03:39.090Z,7.60
2018-03-21T11:06:05.304Z,4.80
2018-03-21T11:08:31.502Z,6.70
2018-03-21T11:10:58.513Z,4.73
2018-03-21T11:13:25.468Z,5.00
2018-03-21T11:15:51.730Z,4.93
2018-03-21T11:18:17.937Z,6.20
2018-03-21T11:20:51.124Z,5.37
2018-03-21T11:23:17.334Z,6.30
2018-03-21T11:25:43.612Z,6.20
2018-03-21T11:28:09.742Z,4.77
2018-03-21T11:30:35.908Z,5.23
2018-03-21T11:33:02.138Z,5.37
2018-03-21T11:35:28.463Z,5.40
2018-03-21T11:37:54.711Z,5.00
2018-03-21T11:40:20.904Z,6.63
2018-03-21T11:42:47.275Z,5.60
2018-03-21T11:45:13.445Z,6.97
2018-03-21T11:47:39.725Z,3.13
2018-03-21T11:50:05.951Z,5.20
2018-03-21T11:52:32.220Z,5.03
2018-03-21T11:54:58.489Z,4.70
2018-03-21T11:57:24.723Z,6.07
2018-03-21T11:59:50.927Z,3.50
2018-03-21T12:02:17.227Z,5.17
2018-03-21T12:04:43.422Z,5.87
2018-03-21T12:07:09.732Z,4.93
2018-03-21T12:09:35.921Z,4.80
2018-03-21T12:12:02.970Z,4.67
2018-03-21T12:14:35.946Z,4.70
2018-03-21T12:17:02.159Z,5.00
2018-03-21T12:19:28.400Z,4.97
2018-03-21T12:21:54.622Z,5.10
2018-03-21T12:24:20.831Z,5.27
2018-03-21T12:26:47.104Z,4.67
2018-03-21T12:29:14.046Z,4.00
2018-03-21T12:31:40.231Z,4.20
2018-03-21T12:34:06.444Z,3.87
2018-03-21T12:36:32.665Z,4.57
2018-03-21T12:38:58.975Z,4.00
2018-03-21T12:41:25.904Z,4.50
2018-03-21T12:43:52.138Z,3.70
2018-03-21T12:46:19.160Z,2.73
2018-03-21T12:48:45.323Z,3.00
2018-03-21T12:51:12.302Z,2.90
2018-03-21T12:53:38.498Z,3.90
2018-03-21T12:56:04.729Z,3.37
2018-03-21T12:58:31.693Z,3.03
2018-03-21T13:00:57.900Z,2.67
2018-03-21T13:03:24.900Z,2.80
2018-03-21T13:05:51.246Z,2.77
2018-03-21T13:08:17.438Z,2.50
2018-03-21T13:10:43.658Z,3.67
2018-03-21T13:13:09.885Z,4.53
2018-03-21T13:15:36.102Z,2.87
2018-03-21T13:18:03.082Z,4.50
2018-03-21T13:20:29.350Z,3.40
2018-03-21T13:22:55.674Z,4.20
2018-03-21T13:25:21.882Z,5.00
2018-03-21T13:27:48.138Z,2.90
2018-03-21T13:30:14.311Z,3.60
2018-03-21T13:32:40.599Z,3.60
2018-03-21T13:35:06.772Z,3.50
2018-03-21T13:37:32.978Z,3.73
2018-03-21T13:39:59.207Z,3.30
2018-03-21T13:42:26.118Z,3.93
2018-03-21T13:44:52.367Z,3.20
2018-03-21T13:47:18.560Z,3.30
2018-03-21T13:49:44.730Z,3.97
2018-03-21T13:52:11.661Z,3.97
2018-03-21T13:54:37.848Z,4.70
2018-03-21T13:57:04.074Z,3.90
2018-03-21T13:59:30.290Z,4.10
2018-03-21T14:01:56.569Z,3.90
2018-03-21T14:04:22.847Z,4.93
2018-03-21T14:06:49.035Z,4.80
2018-03-21T14:09:15.244Z,4.47
2018-03-21T14:11:41.469Z,6.30
2018-03-21T14:14:07.929Z,4.90
2018-03-21T14:16:34.347Z,5.67
2018-03-21T14:19:00.574Z,5.60
2018-03-21T14:21:26.746Z,4.40
2018-03-21T14:23:53.765Z,4.93
2018-03-21T14:26:19.976Z,4.70
2018-03-21T14:28:46.162Z,5.57
2018-03-21T14:31:12.393Z,5.70
2018-03-21T14:33:38.626Z,5.13
2018-03-21T14:36:04.843Z,4.50
2018-03-21T14:38:31.112Z,4.43
2018-03-21T14:40:57.332Z,5.20
2018-03-21T14:43:23.572Z,5.07
2018-03-21T14:45:49.777Z,4.80
2018-03-21T14:48:15.954Z,6.00
2018-03-21T14:50:42.141Z,4.50
2018-03-21T14:53:08.324Z,4.83
2018-03-21T14:55:35.321Z,4.60
2018-03-21T14:58:01.508Z,4.67
2018-03-21T15:00:28.474Z,4.10
2018-03-21T15:02:54.675Z,4.50
2018-03-21T15:05:21.641Z,4.20
2018-03-21T15:07:47.849Z,6.10
2018-03-21T15:10:14.814Z,5.40
2018-03-21T15:12:41.861Z,4.93
2018-03-21T15:15:08.807Z,4.63
2018-03-21T15:17:35.048Z,5.60
2018-03-21T15:20:01.296Z,6.30
2018-03-21T15:22:27.600Z,5.57
2018-03-21T15:24:53.843Z,3.90
2018-03-21T15:27:20.136Z,3.90
2018-03-21T15:29:46.306Z,4.47
2018-03-21T15:32:12.542Z,3.17
2018-03-21T15:34:38.751Z,3.90
2018-03-21T15:37:05.056Z,4.03
2018-03-21T15:39:31.989Z,4.20
2018-03-21T15:41:58.926Z,4.17
2018-03-21T15:44:25.210Z,3.77
2018-03-21T15:46:51.414Z,3.77
2018-03-21T15:49:18.385Z,3.23
2018-03-21T15:51:44.602Z,3.30
2018-03-21T15:54:10.780Z,3.20
2018-03-21T15:56:36.986Z,3.70
2018-03-21T15:59:03.216Z,3.73
2018-03-21T16:01:29.418Z,3.10
2018-03-21T16:03:55.671Z,3.30
2018-03-21T16:06:21.868Z,3.80
2018-03-21T16:08:48.162Z,3.10
2018-03-21T16:11:14.411Z,4.70
2018-03-21T16:13:41.374Z,4.60
2018-03-21T16:16:07.876Z,3.90
2018-03-21T16:18:34.108Z,3.90
2018-03-21T16:21:00.355Z,4.77
2018-03-21T16:23:27.301Z,3.63
2018-03-21T16:25:54.287Z,4.77
2018-03-21T16:28:20.626Z,5.07
2018-03-21T16:30:46.862Z,3.90
2018-03-21T16:33:13.073Z,4.30
2018-03-21T16:35:39.290Z,4.20
2018-03-21T16:38:05.561Z,4.43
2018-03-21T16:40:31.766Z,4.80
2018-03-21T16:42:58.183Z,4.80
2018-03-21T16:45:24.378Z,4.97
2018-03-21T16:47:51.340Z,5.70
2018-03-21T16:50:17.524Z,5.33
2018-03-21T16:52:43.785Z,4.53
2018-03-21T16:55:10.720Z,4.60
2018-03-21T16:57:37.725Z,5.83
2018-03-21T17:00:04.050Z,5.77
2018-03-21T17:02:30.269Z,5.23
2018-03-21T17:04:56.497Z,6.43
2018-03-21T17:07:22.665Z,6.37
2018-03-21T17:09:48.846Z,6.30
2018-03-21T17:12:15.061Z,6.03
2018-03-21T17:14:42.031Z,6.07
2018-03-21T17:17:08.240Z,5.57
2018-03-21T17:19:34.437Z,5.30
2018-03-21T17:22:00.649Z,4.40
2018-03-21T17:24:26.849Z,6.73
2018-03-21T17:26:53.042Z,5.37
2018-03-21T17:29:27.077Z,5.23
2018-03-21T17:31:53.401Z,5.40
2018-03-21T17:34:19.588Z,4.77
2018-03-21T17:36:45.772Z,6.10
2018-03-21T17:39:11.993Z,6.47
2018-03-21T17:41:38.238Z,4.90
2018-03-21T17:44:04.436Z,4.73
2018-03-21T17:46:30.639Z,5.43
2018-03-21T17:48:57.624Z,4.97
2018-03-21T17:51:23.839Z,4.80
2018-03-21T17:53:50.810Z,6.60
2018-03-21T17:56:17.023Z,6.03
2018-03-21T17:58:43.321Z,5.63
2018-03-21T18:01:10.264Z,5.10
2018-03-21T18:03:36.502Z,4.73
2018-03-21T18:06:03.525Z,5.73
2018-03-21T18:08:29.705Z,6.90
2018-03-21T18:10:56.016Z,6.10
2018-03-21T18:13:22.956Z,6.10
2018-03-21T18:15:49.897Z,6.03
2018-03-21T18:18:16.987Z,7.37
2018-03-21T18:20:43.323Z,6.70
2018-03-21T18:23:09.534Z,6.83
2018-03-21T18:25:35.804Z,6.33
2018-03-21T18:28:02.115Z,7.07
2018-03-21T18:30:28.320Z,6.93
2018-03-21T18:32:54.557Z,7.83
2018-03-21T18:35:20.758Z,8.73
2018-03-21T18:37:47.716Z,7.23
2018-03-21T18:40:13.890Z,6.40
2018-03-21T18:42:40.074Z,7.23
2018-03-21T18:45:06.313Z,7.33
2018-03-21T18:47:32.535Z,6.17
2018-03-21T18:49:58.742Z,6.20
2018-03-21T18:52:25.684Z,5.40
2018-03-21T18:54:51.995Z,5.43
2018-03-21T18:57:18.165Z,6.50
2018-03-21T18:59:44.422Z,6.03
2018-03-21T19:02:10.712Z,6.10
2018-03-21T19:04:37.731Z,6.60
2018-03-21T19:07:03.922Z,6.70
2018-03-21T19:09:30.167Z,4.00
2018-03-21T19:11:56.352Z,5.23
2018-03-21T19:14:23.288Z,5.30
2018-03-21T19:16:50.270Z,4.70
2018-03-21T19:19:16.476Z,4.50
2018-03-21T19:21:43.460Z,5.17
2018-03-21T19:24:09.672Z,4.30
2018-03-21T19:26:35.918Z,4.30
2018-03-21T19:29:14.691Z,5.17
2018-03-21T19:31:42.079Z,5.87
2018-03-21T19:34:08.303Z,6.67
2018-03-21T19:36:34.517Z,4.93
2018-03-21T19:39:01.476Z,4.73
2018-03-21T19:41:27.721Z,5.97
2018-03-21T19:43:53.932Z,4.93
2018-03-21T19:46:20.176Z,5.17
2018-03-21T19:48:46.516Z,6.20
2018-03-21T19:51:12.792Z,5.03
2018-03-21T19:53:38.936Z,5.60
2018-03-21T19:56:05.990Z,7.87
2018-03-21T19:58:32.957Z,5.10
2018-03-21T20:00:59.228Z,4.10
2018-03-21T20:03:25.434Z,5.10
2018-03-21T20:05:51.705Z,5.33
2018-03-21T20:08:17.946Z,5.40
2018-03-21T20:10:44.916Z,4.80
2018-03-21T20:13:11.146Z,6.60
2018-03-21T20:15:37.389Z,6.00
2018-03-21T20:18:03.607Z,6.47
2018-03-21T20:20:29.821Z,7.63
2018-03-21T20:22:56.035Z,6.43
2018-03-21T20:25:22.975Z,7.23
2018-03-21T20:27:49.189Z,6.00
2018-03-21T20:30:15.382Z,7.43
2018-03-21T20:32:41.607Z,7.23
2018-03-21T20:35:08.026Z,7.83
2018-03-21T20:37:34.247Z,7.30
2018-03-21T20:40:00.434Z,5.93
2018-03-21T20:42:26.689Z,6.23
2018-03-21T20:44:53.665Z,6.50
2018-03-21T20:47:19.879Z,5.93
2018-03-21T20:49:46.051Z,5.17
2018-03-21T20:52:12.285Z,6.17
2018-03-21T20:54:38.503Z,6.30
2018-03-21T20:57:04.682Z,6.20
2018-03-21T20:59:31.606Z,5.53
2018-03-21T21:01:57.801Z,7.00
2018-03-21T21:04:24.799Z,5.00
2018-03-21T21:06:51.756Z,6.13
2018-03-21T21:09:17.957Z,5.33
2018-03-21T21:11:44.950Z,5.10
2018-03-21T21:14:11.153Z,6.10
2018-03-21T21:16:38.085Z,6.33
2018-03-21T21:19:05.055Z,5.67
2018-03-21T21:21:31.258Z,5.47
2018-03-21T21:23:57.499Z,6.13
2018-03-21T21:26:24.433Z,5.10
2018-03-21T21:28:50.642Z,6.70
2018-03-21T21:31:16.849Z,4.30
2018-03-21T21:33:43.820Z,5.00
2018-03-21T21:36:10.010Z,5.60
2018-03-21T21:38:36.226Z,5.20
2018-03-21T21:41:02.414Z,4.47
2018-03-21T21:43:28.630Z,4.90
2018-03-21T21:45:54.869Z,4.50
2018-03-21T21:48:21.087Z,3.80
2018-03-21T21:50:47.339Z,4.70
2018-03-21T21:53:14.254Z,4.10
2018-03-21T21:55:42.218Z,3.93
2018-03-21T21:58:08.430Z,4.20
2018-03-21T22:00:34.698Z,3.83
2018-03-21T22:03:00.895Z,4.30
2018-03-21T22:05:27.148Z,4.00
2018-03-21T22:07:53.412Z,4.00
2018-03-21T22:10:20.368Z,3.80
2018-03-21T22:12:46.562Z,3.60
2018-03-21T22:15:12.772Z,3.97
2018-03-21T22:17:38.965Z,4.07
2018-03-21T22:20:05.176Z,3.53
2018-03-21T22:22:31.383Z,4.00
2018-03-21T22:24:58.349Z,3.90
2018-03-21T22:27:24.641Z,5.00
2018-03-21T22:29:50.833Z,4.17
2018-03-21T22:32:17.052Z,4.23
2018-03-21T22:34:43.250Z,3.90
2018-03-21T22:37:10.313Z,3.20
2018-03-21T22:39:37.255Z,4.70
2018-03-21T22:42:04.208Z,4.63
2018-03-21T22:44:30.377Z,4.50
2018-03-21T22:46:56.578Z,4.40
2018-03-21T22:49:22.765Z,4.50
2018-03-21T22:51:48.986Z,3.30
2018-03-21T22:54:15.184Z,3.77
2018-03-21T22:56:41.385Z,4.03
2018-03-21T22:59:07.736Z,5.30
2018-03-21T23:01:33.913Z,3.23
2018-03-21T23:04:00.129Z,4.10
2018-03-21T23:06:26.326Z,4.47
2018-03-21T23:08:52.589Z,3.60
2018-03-21T23:11:18.764Z,3.90
2018-03-21T23:13:45.044Z,4.47
2018-03-21T23:16:11.218Z,4.80
2018-03-21T23:18:37.452Z,4.17
2018-03-21T23:21:03.705Z,4.10
2018-03-21T23:23:30.367Z,4.80
2018-03-21T23:25:56.560Z,5.77
2018-03-21T23:28:22.824Z,5.60
2018-03-21T23:30:49.000Z,4.87
2018-03-21T23:33:15.193Z,5.90
2018-03-21T23:35:41.400Z,4.87
2018-03-21T23:38:07.772Z,4.70
2018-03-21T23:40:34.093Z,4.93
2018-03-21T23:43:01.019Z,5.50
2018-03-21T23:45:27.215Z,5.17
2018-03-21T23:47:53.410Z,5.10
2018-03-21T23:50:19.602Z,5.30
2018-03-21T23:52:45.834Z,6.53
2018-03-21T23:55:12.054Z,5.97
2018-03-21T23:57:38.993Z,6.60
